Alyeska Resort
Hourly Weather - Base Weather Site
ALY_BASE_HR 5/28/2016
CLICK TO VIEW GRAPH!!

        DATE  TIME   Air  BATT   H2o   H2o   Rel
                    Temp  Volt  Inch Since  Hum%
                      F   AVG   1HR  0600   AVG

   5/28/2016 05:00    48 13.75  0.00  0.00    76
   5/28/2016 04:00    49 13.72  0.00  0.00    75
   5/28/2016 03:00    50 13.69  0.00  0.00    71
   5/28/2016 02:00    52 13.66  0.00  0.00    69
   5/28/2016 01:00    53 13.63  0.00  0.00    67
   5/27/2016 24:00    55 13.58  0.00  0.00    60
   5/27/2016 23:00    56 13.53  0.00  0.00    60
   5/27/2016 22:00    60 13.43  0.00  0.00    48
   5/27/2016 21:00    67 13.33  0.00  0.00    38
   5/27/2016 20:00    71 13.29  0.00  0.00    31
   5/27/2016 19:00    71 13.30  0.00  0.00    31
   5/27/2016 18:00    71 13.29  0.00  0.00    31
   5/27/2016 17:00    70 13.32  0.00  0.00    32
   5/27/2016 16:00    69 13.34  0.00  0.00    35
   5/27/2016 15:00    68 13.34  0.00  0.00    39
   5/27/2016 14:00    68 13.35  0.00  0.00    44
   5/27/2016 13:00    66 13.39  0.00  0.00    49
   5/27/2016 12:00    64 13.43  0.00  0.00    48
   5/27/2016 11:00    62 13.49  0.00  0.00    52
   5/27/2016 10:00    60 13.58  0.00  0.00    57
   5/27/2016 09:00    54 13.72  0.00  0.00    69
   5/27/2016 08:00    48 13.80  0.00  0.00    80
   5/27/2016 07:00    46 13.81  0.00  0.00    84
   5/27/2016 06:00    46 13.81  0.00  0.00    84


CLICK TO VIEW GRAPH!!